Time;durP1;ratioP1;P1;durP2;ratioP2;P2;SDS_P1;SDS_P2;PMS_P1;PMS_P2;Temp;Humidity;BMP_temperature;BMP_pressure;BME280_temperature;BME280_humidity;BME280_pressure;Samples;Min_cycle;Max_cycle;Signal;HPM_P1;HPM_P2
2022/03/26 00:01:44;;;;;;;51.78;25.83;;;;;;;;;;4955351;29;20039;-63
2022/03/26 00:04:11;;;;;;;58.78;27.58;;;;;;;;;;4955248;29;20492;-63
2022/03/26 00:06:38;;;;;;;52.75;26.20;;;;;;;;;;4955456;29;20058;-63
2022/03/26 00:09:04;;;;;;;50.28;24.58;;;;;;;;;;4954944;29;20031;-63
2022/03/26 00:11:31;;;;;;;54.63;25.17;;;;;;;;;;4955031;29;20432;-62
2022/03/26 00:13:57;;;;;;;51.25;23.80;;;;;;;;;;4955046;29;20105;-62
2022/03/26 00:16:23;;;;;;;44.10;23.13;;;;;;;;;;4954942;29;20034;-62
2022/03/26 00:18:49;;;;;;;45.40;23.98;;;;;;;;;;4955147;29;20027;-63
2022/03/26 00:21:15;;;;;;;46.90;23.35;;;;;;;;;;4954926;29;20071;-61
2022/03/26 00:23:41;;;;;;;45.92;22.13;;;;;;;;;;4954776;29;20042;-63
2022/03/26 00:26:10;;;;;;;46.33;22.02;;;;;;;;;;4954710;29;20044;-63
2022/03/26 00:28:37;;;;;;;42.00;21.67;;;;;;;;;;4954557;28;20564;-63
2022/03/26 00:31:04;;;;;;;43.83;21.23;;;;;;;;;;4954382;29;20079;-64
2022/03/26 00:33:31;;;;;;;42.20;22.63;;;;;;;;;;4954228;29;20142;-63
2022/03/26 00:35:58;;;;;;;41.60;21.40;;;;;;;;;;4954403;29;20035;-63
2022/03/26 00:38:24;;;;;;;46.55;21.83;;;;;;;;;;4954673;29;20030;-62
2022/03/26 00:40:50;;;;;;;43.33;22.67;;;;;;;;;;4954207;29;20019;-64
2022/03/26 00:43:16;;;;;;;45.10;22.30;;;;;;;;;;4954692;29;20027;-64
2022/03/26 00:45:45;;;;;;;48.60;25.15;;;;;;;;;;4954520;29;20038;-62
2022/03/26 00:48:11;;;;;;;42.47;22.80;;;;;;;;;;4954547;29;20119;-61
2022/03/26 00:50:38;;;;;;;47.75;23.35;;;;;;;;;;4953553;28;20027;-63
2022/03/26 00:53:04;;;;;;;47.78;23.52;;;;;;;;;;4954447;29;20046;-63
2022/03/26 00:55:30;;;;;;;47.50;21.65;;;;;;;;;;4954479;29;20114;-63
2022/03/26 00:57:56;;;;;;;49.10;24.02;;;;;;;;;;4937221;29;20027;-63
2022/03/26 01:00:22;;;;;;;45.97;23.83;;;;;;;;;;4953874;29;20031;-64
2022/03/26 01:02:48;;;;;;;45.75;23.23;;;;;;;;;;4954228;29;20384;-63
2022/03/26 01:05:14;;;;;;;51.67;23.00;;;;;;;;;;4954346;29;20361;-63
2022/03/26 01:07:40;;;;;;;48.28;23.10;;;;;;;;;;4954031;29;20479;-63
2022/03/26 01:10:09;;;;;;;43.00;22.20;;;;;;;;;;4953882;29;20035;-63
2022/03/26 01:12:36;;;;;;;50.58;23.10;;;;;;;;;;4953821;29;20542;-63
2022/03/26 01:15:02;;;;;;;51.45;24.23;;;;;;;;;;4953815;29;20119;-63
2022/03/26 01:17:28;;;;;;;44.38;23.20;;;;;;;;;;4953849;29;20106;-63
2022/03/26 01:19:54;;;;;;;53.55;22.52;;;;;;;;;;4954342;29;20023;-63
2022/03/26 01:22:21;;;;;;;47.22;23.10;;;;;;;;;;4953672;29;20027;-63
2022/03/26 01:24:47;;;;;;;46.15;23.08;;;;;;;;;;4953920;29;20171;-63
2022/03/26 01:27:13;;;;;;;45.63;22.73;;;;;;;;;;4953501;29;20116;-63
2022/03/26 01:29:40;;;;;;;45.08;23.15;;;;;;;;;;4953644;28;20031;-63
2022/03/26 01:32:07;;;;;;;48.13;23.55;;;;;;;;;;4953801;29;20039;-63
2022/03/26 01:34:34;;;;;;;50.03;22.02;;;;;;;;;;4953745;29;20031;-62
2022/03/26 01:37:02;;;;;;;47.80;22.70;;;;;;;;;;4953459;29;20383;-63
2022/03/26 01:39:28;;;;;;;47.38;22.75;;;;;;;;;;4953664;29;20019;-63
2022/03/26 01:41:54;;;;;;;45.25;22.98;;;;;;;;;;4953640;29;20019;-63
2022/03/26 01:44:20;;;;;;;46.25;22.63;;;;;;;;;;4953325;29;20023;-61
2022/03/26 01:46:50;;;;;;;44.55;23.52;;;;;;;;;;4953248;29;20027;-62
2022/03/26 01:49:17;;;;;;;48.78;23.70;;;;;;;;;;4953330;29;20392;-63
2022/03/26 01:51:43;;;;;;;56.53;25.65;;;;;;;;;;4952999;29;20040;-62
2022/03/26 01:54:10;;;;;;;52.55;24.73;;;;;;;;;;4953243;29;20380;-63
2022/03/26 01:56:37;;;;;;;52.20;24.58;;;;;;;;;;4953227;29;20111;-63
2022/03/26 01:59:04;;;;;;;53.15;25.75;;;;;;;;;;4953048;28;20028;-63
2022/03/26 02:01:34;;;;;;;55.33;25.77;;;;;;;;;;4952986;28;20065;-63
2022/03/26 02:04:01;;;;;;;51.45;24.38;;;;;;;;;;4952611;29;20475;-63
2022/03/26 02:06:31;;;;;;;46.40;23.77;;;;;;;;;;4952646;29;20020;-63
2022/03/26 02:08:57;;;;;;;44.88;23.10;;;;;;;;;;4952940;29;20102;-63
2022/03/26 02:11:24;;;;;;;46.30;22.90;;;;;;;;;;4952933;29;20475;-62
2022/03/26 02:13:50;;;;;;;46.42;23.17;;;;;;;;;;4952930;29;20043;-63
2022/03/26 02:16:16;;;;;;;47.40;22.98;;;;;;;;;;4952482;29;20027;-63
2022/03/26 02:18:42;;;;;;;46.80;23.33;;;;;;;;;;4952889;29;20039;-63
2022/03/26 02:21:08;;;;;;;49.35;22.98;;;;;;;;;;4952875;29;20055;-63
2022/03/26 02:23:35;;;;;;;46.60;23.05;;;;;;;;;;4952796;29;20526;-62
2022/03/26 02:26:01;;;;;;;43.28;22.38;;;;;;;;;;4952856;29;20038;-61
2022/03/26 02:28:27;;;;;;;47.58;23.55;;;;;;;;;;4952868;28;20148;-63
2022/03/26 02:30:53;;;;;;;48.67;23.40;;;;;;;;;;4952821;29;20069;-63
2022/03/26 02:33:19;;;;;;;53.05;24.20;;;;;;;;;;4952474;29;20078;-63
2022/03/26 02:35:45;;;;;;;49.70;24.17;;;;;;;;;;4952769;29;20035;-63
2022/03/26 02:38:11;;;;;;;50.90;23.83;;;;;;;;;;4952526;29;20487;-63
2022/03/26 02:40:37;;;;;;;46.72;22.92;;;;;;;;;;4952340;29;20034;-63
2022/03/26 02:43:06;;;;;;;50.65;24.15;;;;;;;;;;4952662;29;20034;-63
2022/03/26 02:45:32;;;;;;;45.63;23.00;;;;;;;;;;4953089;29;20367;-63
2022/03/26 02:47:58;;;;;;;47.50;24.00;;;;;;;;;;4952812;29;20027;-63
2022/03/26 02:50:25;;;;;;;45.90;22.85;;;;;;;;;;4952644;29;20031;-63
2022/03/26 02:52:51;;;;;;;44.47;22.92;;;;;;;;;;4952801;29;20091;-63
2022/03/26 02:55:17;;;;;;;46.95;23.38;;;;;;;;;;4952604;29;20037;-63
2022/03/26 02:57:46;;;;;;;48.03;22.75;;;;;;;;;;4952571;29;20031;-63
2022/03/26 03:00:14;;;;;;;47.08;22.05;;;;;;;;;;4952380;29;20031;-63
2022/03/26 03:02:40;;;;;;;46.83;23.20;;;;;;;;;;4954366;29;20058;-63
2022/03/26 03:05:06;;;;;;;45.85;22.45;;;;;;;;;;4954330;29;20032;-62
2022/03/26 03:07:33;;;;;;;45.65;23.15;;;;;;;;;;4952269;29;20110;-64
2022/03/26 03:09:59;;;;;;;44.70;21.85;;;;;;;;;;4952414;29;20531;-63
2022/03/26 03:12:28;;;;;;;46.80;21.95;;;;;;;;;;4952369;28;20020;-62
2022/03/26 03:14:54;;;;;;;43.25;21.58;;;;;;;;;;4955576;29;20035;-63
2022/03/26 03:17:20;;;;;;;42.58;21.85;;;;;;;;;;4955889;29;20024;-62
2022/03/26 03:19:46;;;;;;;45.30;21.08;;;;;;;;;;4956295;29;20027;-61
2022/03/26 03:22:12;;;;;;;39.78;19.85;;;;;;;;;;4956127;29;20051;-62
2022/03/26 03:24:39;;;;;;;42.55;21.25;;;;;;;;;;4956038;29;20358;-61
2022/03/26 03:27:05;;;;;;;39.90;21.48;;;;;;;;;;4956084;29;20078;-63
2022/03/26 03:29:32;;;;;;;41.55;20.98;;;;;;;;;;4955735;28;20031;-62
2022/03/26 03:31:58;;;;;;;43.28;21.52;;;;;;;;;;4955918;29;20082;-63
2022/03/26 03:34:24;;;;;;;39.95;19.88;;;;;;;;;;4955835;29;20061;-63
2022/03/26 03:36:50;;;;;;;40.90;21.23;;;;;;;;;;4955924;29;20023;-63
2022/03/26 03:39:16;;;;;;;39.88;18.70;;;;;;;;;;4955790;29;20034;-62
2022/03/26 03:41:42;;;;;;;39.22;18.88;;;;;;;;;;4955630;29;20031;-62
2022/03/26 03:44:10;;;;;;;41.28;19.92;;;;;;;;;;4955685;29;20167;-62
2022/03/26 03:46:36;;;;;;;37.90;19.00;;;;;;;;;;4955508;29;20031;-63
2022/03/26 03:49:03;;;;;;;37.03;19.33;;;;;;;;;;4955687;29;20094;-63
2022/03/26 03:51:29;;;;;;;35.42;18.27;;;;;;;;;;4955860;29;20024;-63
2022/03/26 03:53:55;;;;;;;39.75;19.13;;;;;;;;;;4955638;29;20062;-63
2022/03/26 03:56:22;;;;;;;48.13;23.80;;;;;;;;;;4955643;29;20117;-63
2022/03/26 03:58:48;;;;;;;47.13;25.58;;;;;;;;;;4955831;29;20034;-63
2022/03/26 04:01:15;;;;;;;42.72;22.88;;;;;;;;;;4955436;29;20039;-63
2022/03/26 04:03:41;;;;;;;42.88;23.73;;;;;;;;;;4955763;29;20039;-63
2022/03/26 04:06:07;;;;;;;42.75;22.17;;;;;;;;;;4955403;29;20086;-63
2022/03/26 04:08:33;;;;;;;40.30;20.20;;;;;;;;;;4955564;29;20031;-63
2022/03/26 04:10:59;;;;;;;41.63;19.67;;;;;;;;;;4955317;29;20030;-63
2022/03/26 04:13:25;;;;;;;39.83;19.67;;;;;;;;;;4955345;29;20551;-63
2022/03/26 04:15:51;;;;;;;36.42;19.02;;;;;;;;;;4955379;29;20412;-62
2022/03/26 04:18:17;;;;;;;38.20;19.27;;;;;;;;;;4955140;29;20106;-62
2022/03/26 04:20:43;;;;;;;43.22;22.25;;;;;;;;;;4955684;29;20384;-62
2022/03/26 04:23:09;;;;;;;47.10;21.60;;;;;;;;;;4955324;29;20135;-62
2022/03/26 04:25:35;;;;;;;37.58;20.48;;;;;;;;;;4953678;28;20031;-63
2022/03/26 04:28:01;;;;;;;39.65;19.25;;;;;;;;;;4955131;28;20063;-63
2022/03/26 04:30:27;;;;;;;37.28;19.98;;;;;;;;;;4955178;28;20062;-62
2022/03/26 04:32:53;;;;;;;41.28;19.05;;;;;;;;;;4954846;29;20063;-62
2022/03/26 04:35:19;;;;;;;39.08;19.00;;;;;;;;;;4955420;29;20035;-62
2022/03/26 04:37:45;;;;;;;41.13;19.23;;;;;;;;;;4954932;29;20031;-61
2022/03/26 04:40:13;;;;;;;39.15;19.52;;;;;;;;;;4955064;29;20035;-62
2022/03/26 04:42:41;;;;;;;41.13;19.77;;;;;;;;;;4954933;29;20020;-62
2022/03/26 04:45:07;;;;;;;45.15;22.27;;;;;;;;;;4954801;29;20098;-62
2022/03/26 04:47:34;;;;;;;38.80;19.52;;;;;;;;;;4954599;29;20624;-62
2022/03/26 04:50:00;;;;;;;39.40;19.88;;;;;;;;;;4954679;29;20122;-63
2022/03/26 04:52:26;;;;;;;37.13;19.52;;;;;;;;;;4954605;29;20031;-62
2022/03/26 04:54:52;;;;;;;39.83;19.30;;;;;;;;;;4954359;29;20050;-62
2022/03/26 04:57:18;;;;;;;37.55;19.48;;;;;;;;;;4954539;29;20384;-62
2022/03/26 04:59:45;;;;;;;41.58;19.80;;;;;;;;;;4954430;29;20478;-62
2022/03/26 05:02:11;;;;;;;31.70;18.38;;;;;;;;;;4954405;29;20291;-62
2022/03/26 05:04:37;;;;;;;39.75;19.80;;;;;;;;;;4954194;29;20027;-62
2022/03/26 05:07:45;;;;;;;39.28;19.02;;;;;;;;;;4953806;29;20031;-62
2022/03/26 05:09:49;;;;;;;41.38;19.50;;;;;;;;;;4954066;29;20389;-63
2022/03/26 05:12:15;;;;;;;43.17;19.88;;;;;;;;;;4953843;29;20055;-62
2022/03/26 05:14:41;;;;;;;40.53;19.35;;;;;;;;;;4954055;29;20043;-62
2022/03/26 05:17:07;;;;;;;35.97;19.10;;;;;;;;;;4954262;29;20098;-63
2022/03/26 05:19:33;;;;;;;39.22;20.42;;;;;;;;;;4954366;29;20384;-62
2022/03/26 05:21:59;;;;;;;39.72;19.83;;;;;;;;;;4954110;29;20058;-65
2022/03/26 05:24:26;;;;;;;39.45;21.08;;;;;;;;;;4954010;29;20031;-62
2022/03/26 05:26:52;;;;;;;46.03;21.20;;;;;;;;;;4954073;29;20019;-62
2022/03/26 05:29:18;;;;;;;40.22;19.88;;;;;;;;;;4953883;28;20063;-62
2022/03/26 05:31:44;;;;;;;44.78;21.02;;;;;;;;;;4953959;29;20031;-63
2022/03/26 05:34:10;;;;;;;40.88;19.80;;;;;;;;;;4953697;29;20100;-62
2022/03/26 05:36:36;;;;;;;44.53;20.85;;;;;;;;;;4953504;28;20030;-63
2022/03/26 05:39:02;;;;;;;42.28;20.15;;;;;;;;;;4953848;29;20030;-62
2022/03/26 05:41:28;;;;;;;39.10;20.52;;;;;;;;;;4953792;29;20082;-61
2022/03/26 05:43:55;;;;;;;39.55;20.75;;;;;;;;;;4953775;29;20031;-61
2022/03/26 05:46:21;;;;;;;42.58;20.13;;;;;;;;;;4953747;29;20483;-61
2022/03/26 05:48:47;;;;;;;45.70;20.35;;;;;;;;;;4953562;29;20027;-63
2022/03/26 05:51:13;;;;;;;47.83;20.55;;;;;;;;;;4953770;29;20052;-62
2022/03/26 05:53:40;;;;;;;56.03;20.10;;;;;;;;;;4953229;29;20039;-62
2022/03/26 05:56:06;;;;;;;41.75;20.67;;;;;;;;;;4953629;29;20030;-62
2022/03/26 05:58:34;;;;;;;48.28;21.10;;;;;;;;;;4953620;29;20117;-62
2022/03/26 06:01:00;;;;;;;41.40;20.80;;;;;;;;;;4953209;29;20034;-63
2022/03/26 06:03:26;;;;;;;46.85;22.17;;;;;;;;;;4953230;29;20496;-61
2022/03/26 06:05:53;;;;;;;42.08;22.63;;;;;;;;;;4952976;29;20106;-62
2022/03/26 06:08:19;;;;;;;50.75;22.83;;;;;;;;;;4953024;29;20027;-62
2022/03/26 06:10:45;;;;;;;46.28;22.17;;;;;;;;;;4952793;29;20028;-62
2022/03/26 06:13:11;;;;;;;40.10;21.40;;;;;;;;;;4952783;29;20031;-62
2022/03/26 06:15:37;;;;;;;42.53;22.15;;;;;;;;;;4953280;29;20023;-62
2022/03/26 06:18:03;;;;;;;44.30;22.85;;;;;;;;;;4953207;29;20019;-62
2022/03/26 06:20:30;;;;;;;44.20;22.85;;;;;;;;;;4952703;29;20033;-62
2022/03/26 06:22:56;;;;;;;46.55;22.55;;;;;;;;;;4952918;29;20028;-62
2022/03/26 06:25:23;;;;;;;51.13;23.88;;;;;;;;;;4952399;29;20059;-62
2022/03/26 06:27:49;;;;;;;48.28;24.60;;;;;;;;;;4951314;28;20110;-62
2022/03/26 06:30:16;;;;;;;48.05;26.65;;;;;;;;;;4951408;28;20035;-62
2022/03/26 06:32:42;;;;;;;52.75;26.02;;;;;;;;;;4951417;29;20074;-62
2022/03/26 06:35:09;;;;;;;52.45;25.23;;;;;;;;;;4951510;29;20408;-62
2022/03/26 06:37:35;;;;;;;53.42;25.40;;;;;;;;;;4951660;29;20548;-62
2022/03/26 06:40:01;;;;;;;52.92;24.55;;;;;;;;;;4965428;28;20046;-62
2022/03/26 06:42:27;;;;;;;49.33;25.55;;;;;;;;;;4964112;28;20043;-63
2022/03/26 06:44:59;;;;;;;44.58;23.70;;;;;;;;;;4951285;29;20031;-62
2022/03/26 06:47:28;;;;;;;46.40;24.13;;;;;;;;;;4941206;28;20062;-62
2022/03/26 06:49:55;;;;;;;47.47;23.50;;;;;;;;;;4952318;29;20069;-62
2022/03/26 06:52:23;;;;;;;48.95;24.30;;;;;;;;;;4952912;29;20086;-63
2022/03/26 06:54:49;;;;;;;47.65;24.45;;;;;;;;;;4952507;29;20545;-62
2022/03/26 06:57:15;;;;;;;46.92;23.40;;;;;;;;;;4952677;29;20027;-63
2022/03/26 06:59:41;;;;;;;47.35;24.25;;;;;;;;;;4952465;29;20114;-63
2022/03/26 07:02:08;;;;;;;45.28;23.25;;;;;;;;;;4952361;29;20106;-63
2022/03/26 07:04:34;;;;;;;53.45;24.55;;;;;;;;;;4952407;29;20106;-63
2022/03/26 07:07:00;;;;;;;42.58;24.50;;;;;;;;;;4952172;29;20027;-63
2022/03/26 07:09:26;;;;;;;46.47;24.33;;;;;;;;;;4952354;29;20377;-63
2022/03/26 07:11:52;;;;;;;50.33;25.52;;;;;;;;;;4952519;29;20098;-63
2022/03/26 07:14:18;;;;;;;45.40;23.13;;;;;;;;;;4952206;29;20110;-64
2022/03/26 07:16:45;;;;;;;45.25;23.70;;;;;;;;;;4952574;29;20098;-62
2022/03/26 07:19:11;;;;;;;47.88;24.05;;;;;;;;;;4952103;29;20118;-64
2022/03/26 07:21:39;;;;;;;45.40;24.05;;;;;;;;;;4952402;29;20023;-63
2022/03/26 07:24:05;;;;;;;48.55;24.30;;;;;;;;;;4951882;29;20085;-64
2022/03/26 07:26:31;;;;;;;47.78;23.70;;;;;;;;;;4952439;29;20039;-63
2022/03/26 07:28:57;;;;;;;42.95;24.05;;;;;;;;;;4952015;28;20520;-64
2022/03/26 07:31:24;;;;;;;45.58;23.85;;;;;;;;;;4952083;29;20035;-63
2022/03/26 07:33:50;;;;;;;43.83;23.65;;;;;;;;;;4951987;29;20051;-63
2022/03/26 07:36:17;;;;;;;48.38;23.63;;;;;;;;;;4951945;29;20046;-64
2022/03/26 07:38:43;;;;;;;45.30;23.92;;;;;;;;;;4951626;29;20069;-62
2022/03/26 07:41:09;;;;;;;49.35;25.45;;;;;;;;;;4952272;29;20054;-63
2022/03/26 07:43:35;;;;;;;51.65;25.63;;;;;;;;;;4951970;29;20028;-62
2022/03/26 07:46:02;;;;;;;45.30;23.98;;;;;;;;;;4951994;29;20027;-64
2022/03/26 07:48:28;;;;;;;45.05;25.13;;;;;;;;;;4951715;29;20083;-63
2022/03/26 07:50:54;;;;;;;43.20;23.08;;;;;;;;;;4951901;29;20534;-64
2022/03/26 07:53:22;;;;;;;43.90;23.60;;;;;;;;;;4951701;29;20468;-63
2022/03/26 07:55:49;;;;;;;50.28;24.52;;;;;;;;;;4952015;29;20020;-64
2022/03/26 07:58:15;;;;;;;47.78;24.20;;;;;;;;;;4951858;29;20027;-63
2022/03/26 08:00:41;;;;;;;47.40;23.67;;;;;;;;;;4954598;28;20046;-63
2022/03/26 08:03:08;;;;;;;44.33;22.73;;;;;;;;;;4955104;29;20031;-65
2022/03/26 08:05:34;;;;;;;47.13;23.95;;;;;;;;;;4953793;29;20027;-64
2022/03/26 08:08:00;;;;;;;43.45;22.95;;;;;;;;;;4952709;29;20737;-64
2022/03/26 08:10:26;;;;;;;43.53;21.70;;;;;;;;;;4953491;28;20525;-63
2022/03/26 08:12:52;;;;;;;37.70;21.25;;;;;;;;;;4955349;29;20082;-61
2022/03/26 08:15:18;;;;;;;40.50;20.98;;;;;;;;;;4969302;28;20030;-64
2022/03/26 08:17:44;;;;;;;38.83;18.98;;;;;;;;;;4957540;28;20432;-63
2022/03/26 08:20:10;;;;;;;30.65;17.90;;;;;;;;;;4961026;28;20431;-64
2022/03/26 08:22:37;;;;;;;32.67;17.05;;;;;;;;;;4963324;28;20046;-64
2022/03/26 08:25:03;;;;;;;32.55;16.92;;;;;;;;;;4961189;28;20027;-62
2022/03/26 08:27:29;;;;;;;36.33;18.02;;;;;;;;;;4970248;28;20027;-62
2022/03/26 08:29:55;;;;;;;38.03;18.15;;;;;;;;;;4958103;28;20042;-62
2022/03/26 08:32:21;;;;;;;36.92;18.27;;;;;;;;;;4966433;28;20063;-63
2022/03/26 08:34:48;;;;;;;40.55;19.40;;;;;;;;;;4964840;28;20050;-62
2022/03/26 08:37:14;;;;;;;33.80;19.35;;;;;;;;;;4973947;28;20058;-64
2022/03/26 08:39:40;;;;;;;38.78;20.10;;;;;;;;;;4973331;28;20052;-65
2022/03/26 08:42:07;;;;;;;40.80;20.58;;;;;;;;;;4974009;28;20463;-64
2022/03/26 08:44:33;;;;;;;40.90;21.20;;;;;;;;;;4974124;28;20035;-64
2022/03/26 08:47:02;;;;;;;45.15;21.42;;;;;;;;;;4973998;28;20035;-64
2022/03/26 08:49:29;;;;;;;30.15;16.65;;;;;;;;;;4973866;28;20035;-65
2022/03/26 08:51:55;;;;;;;31.65;16.17;;;;;;;;;;4973351;28;20459;-63
2022/03/26 08:54:21;;;;;;;32.08;15.98;;;;;;;;;;4973250;28;20103;-63
2022/03/26 08:56:47;;;;;;;31.77;16.35;;;;;;;;;;4973538;28;20057;-63
2022/03/26 08:59:13;;;;;;;33.78;17.23;;;;;;;;;;4973159;28;20558;-61
2022/03/26 09:01:39;;;;;;;30.92;16.90;;;;;;;;;;4973312;28;20042;-63
2022/03/26 09:04:06;;;;;;;29.58;15.60;;;;;;;;;;4973286;28;20055;-62
2022/03/26 09:06:32;;;;;;;35.30;16.30;;;;;;;;;;4973151;28;20034;-62
2022/03/26 09:08:59;;;;;;;31.88;15.82;;;;;;;;;;4973059;28;20029;-62
2022/03/26 09:11:25;;;;;;;29.60;15.70;;;;;;;;;;4972734;28;20029;-62
2022/03/26 09:13:52;;;;;;;30.42;16.42;;;;;;;;;;4973084;28;20043;-61
2022/03/26 09:16:18;;;;;;;32.45;15.88;;;;;;;;;;4973165;28;20023;-63
2022/03/26 09:18:44;;;;;;;34.20;15.93;;;;;;;;;;4973267;28;20050;-62
2022/03/26 09:21:11;;;;;;;31.23;15.55;;;;;;;;;;4973082;28;20101;-62
2022/03/26 09:23:37;;;;;;;31.17;16.55;;;;;;;;;;4972805;28;20791;-62
2022/03/26 09:26:04;;;;;;;31.73;16.33;;;;;;;;;;4972230;28;20360;-60
2022/03/26 09:28:30;;;;;;;37.17;16.60;;;;;;;;;;4972591;28;20029;-61
2022/03/26 09:30:56;;;;;;;33.42;17.25;;;;;;;;;;4972688;28;20109;-62
2022/03/26 09:33:22;;;;;;;33.95;15.77;;;;;;;;;;4972682;28;20078;-61
2022/03/26 09:35:48;;;;;;;28.33;16.20;;;;;;;;;;4972666;28;20100;-62
2022/03/26 09:38:14;;;;;;;30.77;16.00;;;;;;;;;;4973064;28;20023;-63
2022/03/26 09:40:43;;;;;;;35.25;16.05;;;;;;;;;;4972742;28;20030;-62
2022/03/26 09:43:09;;;;;;;33.38;18.98;;;;;;;;;;4972521;28;20023;-63
2022/03/26 09:45:35;;;;;;;38.75;19.20;;;;;;;;;;4972822;28;20031;-62
2022/03/26 09:48:01;;;;;;;35.78;19.30;;;;;;;;;;4972700;28;20052;-62
2022/03/26 09:50:30;;;;;;;34.47;18.55;;;;;;;;;;4972264;28;20034;-61
2022/03/26 09:52:56;;;;;;;42.15;19.52;;;;;;;;;;4972343;28;20081;-62
2022/03/26 09:55:23;;;;;;;40.15;19.05;;;;;;;;;;4972297;28;20027;-63
2022/03/26 09:57:49;;;;;;;41.22;19.35;;;;;;;;;;4972562;28;20053;-62
2022/03/26 10:00:16;;;;;;;34.15;17.00;;;;;;;;;;4972358;28;20031;-63
2022/03/26 10:02:42;;;;;;;29.67;15.07;;;;;;;;;;4971755;28;20115;-62
2022/03/26 10:05:11;;;;;;;38.35;16.17;;;;;;;;;;4972142;28;20027;-62
2022/03/26 10:07:37;;;;;;;32.28;17.05;;;;;;;;;;4971942;28;20037;-62
2022/03/26 10:10:03;;;;;;;34.53;18.45;;;;;;;;;;4971895;28;20030;-62
2022/03/26 10:12:30;;;;;;;38.28;19.88;;;;;;;;;;4972392;28;20081;-62
2022/03/26 10:14:57;;;;;;;36.53;20.48;;;;;;;;;;4971706;28;20041;-62
2022/03/26 10:17:27;;;;;;;34.75;18.73;;;;;;;;;;4972116;28;20442;-62
2022/03/26 10:19:53;;;;;;;39.30;18.17;;;;;;;;;;4971975;28;20027;-62
2022/03/26 10:22:40;;;;;;;34.38;17.85;;;;;;;;;;4971826;28;20018;-62
2022/03/26 10:25:06;;;;;;;33.92;17.27;;;;;;;;;;4971679;28;20027;-62
2022/03/26 10:27:40;;;;;;;34.58;17.35;;;;;;;;;;4971842;28;20497;-62
2022/03/26 10:30:06;;;;;;;34.35;16.92;;;;;;;;;;4971913;28;20395;-62
2022/03/26 10:32:40;;;;;;;37.22;17.15;;;;;;;;;;4971908;28;20819;-62
2022/03/26 10:35:27;;;;;;;33.53;18.50;;;;;;;;;;4971848;28;20122;-62
2022/03/26 10:38:01;;;;;;;31.38;14.48;;;;;;;;;;4971830;28;20027;-62
2022/03/26 10:40:28;;;;;;;29.33;14.68;;;;;;;;;;4971589;28;20027;-62
2022/03/26 10:42:56;;;;;;;27.95;13.38;;;;;;;;;;4971861;28;20023;-61
2022/03/26 10:45:22;;;;;;;28.73;13.85;;;;;;;;;;4971763;28;20444;-62
2022/03/26 10:47:50;;;;;;;28.38;14.35;;;;;;;;;;4971859;28;20061;-62
2022/03/26 10:50:16;;;;;;;26.13;13.77;;;;;;;;;;4971836;28;20029;-61
2022/03/26 10:52:42;;;;;;;24.83;13.18;;;;;;;;;;4971905;28;20027;-63
2022/03/26 10:55:18;;;;;;;28.45;13.63;;;;;;;;;;4971690;28;20045;-63
2022/03/26 10:57:46;;;;;;;26.08;12.57;;;;;;;;;;4971836;28;20027;-63
2022/03/26 11:00:17;;;;;;;25.52;12.57;;;;;;;;;;4953919;28;20565;-63
2022/03/26 11:02:43;;;;;;;23.45;11.98;;;;;;;;;;4971475;28;20395;-63
2022/03/26 11:05:10;;;;;;;23.65;12.63;;;;;;;;;;4971410;28;20026;-62
2022/03/26 11:07:37;;;;;;;19.95;12.60;;;;;;;;;;4971319;28;20030;-62
2022/03/26 11:10:07;;;;;;;23.23;12.27;;;;;;;;;;4971320;28;20057;-63
2022/03/26 11:12:33;;;;;;;22.45;11.25;;;;;;;;;;4971465;28;20457;-62
2022/03/26 11:15:02;;;;;;;17.85;10.07;;;;;;;;;;4971032;28;20048;-63
2022/03/26 11:17:34;;;;;;;20.25;10.10;;;;;;;;;;4971458;28;20030;-63
2022/03/26 11:20:19;;;;;;;20.05;10.60;;;;;;;;;;4971458;28;20142;-63
2022/03/26 11:22:57;;;;;;;20.25;10.25;;;;;;;;;;4971464;28;20027;-63
2022/03/26 11:25:27;;;;;;;19.55;10.98;;;;;;;;;;4971152;28;20557;-63
2022/03/26 11:28:02;;;;;;;24.35;10.95;;;;;;;;;;4971440;28;20023;-63
2022/03/26 11:30:31;;;;;;;18.88;10.93;;;;;;;;;;4971272;28;20026;-62
2022/03/26 11:33:08;;;;;;;23.50;11.52;;;;;;;;;;4971121;28;20133;-62
2022/03/26 11:35:34;;;;;;;20.95;10.43;;;;;;;;;;4973920;28;20041;-63
2022/03/26 11:38:02;;;;;;;25.92;11.07;;;;;;;;;;4974755;28;20498;-62
2022/03/26 11:40:41;;;;;;;22.15;11.18;;;;;;;;;;4974641;28;20035;-62
2022/03/26 11:43:07;;;;;;;21.35;11.05;;;;;;;;;;4975042;28;20026;-62
2022/03/26 11:51:34;;;;;;;18.65;10.88;;;;;;;;;;4975031;28;20045;-63
2022/03/26 11:54:05;;;;;;;20.70;11.05;;;;;;;;;;4974669;28;20034;-63
2022/03/26 11:56:32;;;;;;;20.60;10.38;;;;;;;;;;4974716;28;20019;-63
2022/03/26 11:59:03;;;;;;;24.05;12.23;;;;;;;;;;4974148;28;20039;-63
2022/03/26 12:01:40;;;;;;;20.02;10.88;;;;;;;;;;4974763;28;20475;-63
2022/03/26 12:04:16;;;;;;;23.48;10.88;;;;;;;;;;4974632;28;20027;-63
2022/03/26 12:06:47;;;;;;;20.17;9.90;;;;;;;;;;4974402;28;20031;-63
2022/03/26 12:09:31;;;;;;;16.77;9.63;;;;;;;;;;4974711;28;20038;-63
2022/03/26 12:12:13;;;;;;;17.23;10.10;;;;;;;;;;4974631;28;20113;-63
2022/03/26 12:14:58;;;;;;;19.33;10.40;;;;;;;;;;4974217;28;20037;-63
2022/03/26 12:17:45;;;;;;;21.30;10.18;;;;;;;;;;4973927;28;20032;-63
2022/03/26 12:20:19;;;;;;;18.42;9.75;;;;;;;;;;4974046;28;20486;-63
2022/03/26 12:22:45;;;;;;;19.55;8.98;;;;;;;;;;4974094;28;20427;-62
2022/03/26 12:25:16;;;;;;;21.05;9.55;;;;;;;;;;4974216;28;20023;-62
2022/03/26 12:27:44;;;;;;;18.02;10.05;;;;;;;;;;4974264;28;20034;-63
2022/03/26 12:30:11;;;;;;;18.90;9.50;;;;;;;;;;4974077;28;20038;-62
2022/03/26 12:32:38;;;;;;;20.58;9.20;;;;;;;;;;4973661;28;20050;-63
2022/03/26 12:35:05;;;;;;;19.40;9.55;;;;;;;;;;4973783;28;20066;-63
2022/03/26 12:37:32;;;;;;;14.35;7.90;;;;;;;;;;4973759;28;20065;-63
2022/03/26 12:39:58;;;;;;;13.02;6.60;;;;;;;;;;4973955;28;20027;-63
2022/03/26 12:42:25;;;;;;;13.02;7.10;;;;;;;;;;4973873;28;20055;-63
2022/03/26 12:44:52;;;;;;;14.73;7.10;;;;;;;;;;4973701;28;20030;-63
2022/03/26 12:47:19;;;;;;;17.08;7.65;;;;;;;;;;4972713;28;20159;-62
2022/03/26 12:49:47;;;;;;;18.05;7.78;;;;;;;;;;4973672;28;20031;-62
2022/03/26 12:52:16;;;;;;;17.73;7.50;;;;;;;;;;4974100;28;20390;-63
2022/03/26 12:54:42;;;;;;;14.52;7.35;;;;;;;;;;4973519;28;20030;-62
2022/03/26 12:57:08;;;;;;;16.65;6.68;;;;;;;;;;4973454;28;20031;-63
2022/03/26 12:59:34;;;;;;;11.95;6.60;;;;;;;;;;4973639;28;20113;-62
2022/03/26 13:02:01;;;;;;;12.40;6.10;;;;;;;;;;4973400;28;20035;-62
2022/03/26 13:04:27;;;;;;;19.00;7.47;;;;;;;;;;4973452;28;20121;-62
2022/03/26 13:06:57;;;;;;;17.05;6.95;;;;;;;;;;4973206;28;20107;-62
2022/03/26 13:09:30;;;;;;;12.95;7.13;;;;;;;;;;4973033;28;20031;-62
2022/03/26 13:11:56;;;;;;;17.33;7.75;;;;;;;;;;4973360;28;20129;-62
2022/03/26 13:14:22;;;;;;;13.93;6.57;;;;;;;;;;4972962;28;20047;-63
2022/03/26 13:16:52;;;;;;;12.38;7.03;;;;;;;;;;4973168;28;20030;-63
2022/03/26 13:19:19;;;;;;;17.20;6.80;;;;;;;;;;4973176;28;20087;-62
2022/03/26 13:21:47;;;;;;;14.50;5.70;;;;;;;;;;4973318;28;20515;-63
2022/03/26 13:24:15;;;;;;;17.63;6.97;;;;;;;;;;4973104;28;20037;-62
2022/03/26 13:26:44;;;;;;;12.45;6.43;;;;;;;;;;4972910;28;20031;-62
2022/03/26 13:29:21;;;;;;;13.43;5.80;;;;;;;;;;4972813;28;20041;-62
2022/03/26 13:31:48;;;;;;;13.88;6.03;;;;;;;;;;4972689;28;20030;-63
2022/03/26 13:34:16;;;;;;;14.82;6.60;;;;;;;;;;4972416;28;20050;-63
2022/03/26 13:36:43;;;;;;;12.75;6.25;;;;;;;;;;4972704;28;20514;-63
2022/03/26 13:39:20;;;;;;;12.40;6.18;;;;;;;;;;4972799;28;20030;-63
2022/03/26 13:41:47;;;;;;;15.40;7.15;;;;;;;;;;4972850;28;20023;-62
2022/03/26 13:44:13;;;;;;;11.77;6.50;;;;;;;;;;4972819;28;20023;-62
2022/03/26 13:46:40;;;;;;;13.30;6.40;;;;;;;;;;4972539;28;20058;-62
2022/03/26 13:49:06;;;;;;;11.75;6.60;;;;;;;;;;4972602;28;20438;-62
2022/03/26 13:51:34;;;;;;;13.93;5.90;;;;;;;;;;4972992;28;20031;-63
2022/03/26 13:54:01;;;;;;;12.23;6.10;;;;;;;;;;4972734;28;20043;-62
2022/03/26 13:56:28;;;;;;;11.68;6.35;;;;;;;;;;4972803;28;20387;-62
2022/03/26 13:58:55;;;;;;;14.90;5.85;;;;;;;;;;4972318;28;20065;-62
2022/03/26 14:01:22;;;;;;;15.65;6.57;;;;;;;;;;4972297;28;20027;-63
2022/03/26 14:03:57;;;;;;;15.73;6.43;;;;;;;;;;4972397;28;20050;-62
2022/03/26 14:06:23;;;;;;;14.15;5.90;;;;;;;;;;4972161;28;20077;-62
2022/03/26 14:08:49;;;;;;;12.65;6.53;;;;;;;;;;4972185;28;20023;-62
2022/03/26 14:11:16;;;;;;;9.90;5.88;;;;;;;;;;4971882;28;20026;-62
2022/03/26 14:13:43;;;;;;;14.77;6.00;;;;;;;;;;4971868;28;20045;-61
2022/03/26 14:16:09;;;;;;;13.80;6.15;;;;;;;;;;4972161;28;20026;-62
2022/03/26 14:18:35;;;;;;;12.20;6.93;;;;;;;;;;4972080;28;20101;-62
2022/03/26 14:21:01;;;;;;;15.15;5.85;;;;;;;;;;4971996;28;20027;-61
2022/03/26 14:23:27;;;;;;;11.60;6.22;;;;;;;;;;4971989;28;20041;-62
2022/03/26 14:25:53;;;;;;;11.27;6.53;;;;;;;;;;4972227;28;20471;-62